Time;durP1;ratioP1;P1;durP2;ratioP2;P2;SDS_P1;SDS_P2;PMS_P1;PMS_P2;Temp;Humidity;BMP_temperature;BMP_pressure;BME280_temperature;BME280_humidity;BME280_pressure;Samples;Min_cycle;Max_cycle;Signal;HPM_P1;HPM_P2
2023/03/06 00:01:32;;;;;;;;;;;;;;;;;;5021159;28;19953;-56
2023/03/06 00:03:58;;;;;;;;;;;;;;;;;;5019408;28;19913;-55
2023/03/06 00:06:24;;;;;;;;;;;;;;;;;;5008875;28;20404;-56
2023/03/06 00:08:50;;;;;;;;;;;;;;;;;;5008952;28;19917;-56
2023/03/06 00:11:16;;;;;;;;;;;;;;;;;;5008892;28;19916;-55
2023/03/06 00:13:42;;;;;;;;;;;;;;;;;;5009174;28;19956;-55
2023/03/06 00:16:08;;;;;;;;;;;;;;;;;;5009106;28;19952;-55
2023/03/06 00:18:34;;;;;;;;;;;;;;;;;;5009064;28;20612;-56
2023/03/06 00:21:00;;;;;;;;;;;;;;;;;;5014412;28;20718;-56
2023/03/06 00:23:26;;;;;;;;;;;;;;;;;;5013038;28;19993;-56
2023/03/06 00:25:52;;;;;;;;;;;;;;;;;;5012864;28;19924;-55
2023/03/06 00:28:18;;;;;;;;;;;;;;;;;;5012388;28;19917;-55
2023/03/06 00:30:45;;;;;;;;;;;;;;;;;;5030927;28;19917;-55
2023/03/06 00:33:11;;;;;;;;;;;;;;;;;;5018667;28;19913;-54
2023/03/06 00:35:37;;;;;;;;;;;;;;;;;;5025438;28;19917;-55
2023/03/06 00:38:03;;;;;;;;;;;;;;;;;;5012219;28;20054;-56
2023/03/06 00:40:28;;;;;;;;;;;;;;;;;;5023927;28;19914;-56
2023/03/06 00:42:54;;;;;;;;;;;;;;;;;;5031209;28;19940;-56
2023/03/06 00:45:20;;;;;;;;;;;;;;;;;;5031160;28;20008;-56
2023/03/06 00:47:46;;;;;;;;;;;;;;;;;;5031170;28;20361;-55
2023/03/06 00:50:12;;;;;;;;;;;;;;;;;;5030573;28;20306;-55
2023/03/06 00:52:39;;;;;;;;;;;;;;;;;;5030910;28;19909;-56
2023/03/06 00:55:05;;;;;;;;;;;;;;;;;;5030912;28;19962;-56
2023/03/06 00:57:31;;;;;;;;;;;;;;;;;;5027474;28;19996;-55
2023/03/06 00:59:56;;;;;;;;;;;;;;;;;;5015885;28;20362;-56
2023/03/06 01:02:22;;;;;;;;;;;;;;;;;;5012467;28;19909;-56
2023/03/06 01:04:48;;;;;;;;;;;;;;;;;;5014507;28;19991;-56
2023/03/06 01:07:14;;;;;;;;;;;;;;;;;;5030630;28;19927;-54
2023/03/06 01:09:40;;;;;;;;;;;;;;;;;;5022357;28;19956;-55
2023/03/06 01:12:06;;;;;;;;;;;;;;;;;;5026434;28;19967;-54
2023/03/06 01:14:32;;;;;;;;;;;;;;;;;;5030443;28;20361;-56
2023/03/06 01:16:58;;;;;;;;;;;;;;;;;;5030718;28;19913;-56
2023/03/06 01:19:24;;;;;;;;;;;;;;;;;;5016200;28;20381;-56
2023/03/06 01:21:49;;;;;;;;;;;;;;;;;;5017793;28;20004;-55
2023/03/06 01:24:15;;;;;;;;;;;;;;;;;;5017216;28;19949;-56
2023/03/06 01:26:41;;;;;;;;;;;;;;;;;;5016737;28;20421;-56
2023/03/06 01:29:07;;;;;;;;;;;;;;;;;;5012056;28;19921;-55
2023/03/06 01:31:33;;;;;;;;;;;;;;;;;;5017517;28;20306;-56
2023/03/06 01:33:59;;;;;;;;;;;;;;;;;;5028713;28;19913;-55
2023/03/06 01:36:25;;;;;;;;;;;;;;;;;;5017671;28;20382;-56
2023/03/06 01:38:51;;;;;;;;;;;;;;;;;;5011526;28;19910;-53
2023/03/06 01:41:16;;;;;;;;;;;;;;;;;;5011337;28;20378;-54
2023/03/06 01:43:43;;;;;;;;;;;;;;;;;;5014999;28;19914;-56
2023/03/06 01:46:08;;;;;;;;;;;;;;;;;;5016249;28;19988;-56
2023/03/06 01:48:34;;;;;;;;;;;;;;;;;;5029157;28;20467;-57
2023/03/06 01:51:00;;;;;;;;;;;;;;;;;;5030279;28;19909;-57
2023/03/06 01:53:26;;;;;;;;;;;;;;;;;;5029961;28;20023;-54
2023/03/06 01:55:52;;;;;;;;;;;;;;;;;;5029614;28;19970;-55
2023/03/06 01:58:18;;;;;;;;;;;;;;;;;;5029868;28;20349;-54
2023/03/06 02:00:44;;;;;;;;;;;;;;;;;;5029847;28;20084;-56
2023/03/06 02:03:10;;;;;;;;;;;;;;;;;;5029737;28;20437;-57
2023/03/06 02:05:36;;;;;;;;;;;;;;;;;;5029345;28;19921;-56
2023/03/06 02:08:02;;;;;;;;;;;;;;;;;;5020573;28;20381;-55
2023/03/06 02:10:28;;;;;;;;;;;;;;;;;;5012564;28;19909;-56
2023/03/06 02:12:53;;;;;;;;;;;;;;;;;;5029421;28;19913;-56
2023/03/06 02:15:19;;;;;;;;;;;;;;;;;;5022661;28;19913;-56
2023/03/06 02:17:45;;;;;;;;;;;;;;;;;;5029503;28;20376;-54
2023/03/06 02:20:11;;;;;;;;;;;;;;;;;;5021464;28;19920;-56
2023/03/06 02:22:37;;;;;;;;;;;;;;;;;;5015408;28;20456;-56
2023/03/06 02:25:03;;;;;;;;;;;;;;;;;;5027618;28;19916;-56
2023/03/06 02:27:29;;;;;;;;;;;;;;;;;;5028461;28;20306;-55
2023/03/06 02:29:55;;;;;;;;;;;;;;;;;;5028979;28;19913;-56
2023/03/06 02:32:20;;;;;;;;;;;;;;;;;;5029192;28;20066;-57
2023/03/06 02:34:46;;;;;;;;;;;;;;;;;;5029156;28;20446;-57
2023/03/06 02:37:12;;;;;;;;;;;;;;;;;;5009898;28;19910;-57
2023/03/06 02:39:38;;;;;;;;;;;;;;;;;;5010610;28;20378;-56
2023/03/06 02:42:04;;;;;;;;;;;;;;;;;;5009797;28;19969;-56
2023/03/06 02:44:30;;;;;;;;;;;;;;;;;;5014311;28;19919;-56
2023/03/06 02:46:56;;;;;;;;;;;;;;;;;;5010444;28;19921;-56
2023/03/06 02:49:22;;;;;;;;;;;;;;;;;;5014402;28;19914;-56
2023/03/06 02:51:47;;;;;;;;;;;;;;;;;;5026788;28;19952;-56
2023/03/06 02:54:13;;;;;;;;;;;;;;;;;;5018114;28;19909;-56
2023/03/06 02:56:39;;;;;;;;;;;;;;;;;;5009710;28;19963;-55
2023/03/06 02:59:05;;;;;;;;;;;;;;;;;;5010478;28;19913;-56
2023/03/06 03:01:31;;;;;;;;;;;;;;;;;;5018690;28;19909;-57
2023/03/06 03:03:57;;;;;;;;;;;;;;;;;;5017024;28;20008;-56
2023/03/06 03:06:23;;;;;;;;;;;;;;;;;;5012514;28;19928;-56
2023/03/06 03:08:49;;;;;;;;;;;;;;;;;;5019700;28;20362;-56
2023/03/06 03:11:15;;;;;;;;;;;;;;;;;;5009505;28;20008;-57
2023/03/06 03:13:40;;;;;;;;;;;;;;;;;;5024686;28;20377;-54
2023/03/06 03:16:07;;;;;;;;;;;;;;;;;;5028193;28;19909;-55
2023/03/06 03:18:33;;;;;;;;;;;;;;;;;;5014399;28;19949;-56
2023/03/06 03:20:59;;;;;;;;;;;;;;;;;;5009493;28;19960;-55
2023/03/06 03:23:25;;;;;;;;;;;;;;;;;;5009407;28;20004;-55
2023/03/06 03:25:51;;;;;;;;;;;;;;;;;;5010243;28;20390;-53
2023/03/06 03:28:16;;;;;;;;;;;;;;;;;;5009764;28;19972;-54
2023/03/06 03:30:42;;;;;;;;;;;;;;;;;;5009089;28;20339;-56
2023/03/06 03:33:08;;;;;;;;;;;;;;;;;;5010034;28;19913;-56
2023/03/06 03:35:34;;;;;;;;;;;;;;;;;;5028251;28;20814;-56
2023/03/06 03:38:00;;;;;;;;;;;;;;;;;;5009763;28;20012;-55
2023/03/06 03:40:26;;;;;;;;;;;;;;;;;;5009633;28;20432;-55
2023/03/06 03:42:52;;;;;;;;;;;;;;;;;;5014344;28;19909;-53
2023/03/06 03:45:18;;;;;;;;;;;;;;;;;;5009838;28;19910;-55
2023/03/06 03:47:43;;;;;;;;;;;;;;;;;;5009229;28;19949;-54
2023/03/06 03:50:09;;;;;;;;;;;;;;;;;;5014120;28;20008;-55
2023/03/06 03:52:35;;;;;;;;;;;;;;;;;;5027956;28;20827;-55
2023/03/06 03:55:01;;;;;;;;;;;;;;;;;;5028827;28;19919;-55
2023/03/06 03:57:27;;;;;;;;;;;;;;;;;;5030740;28;19909;-55
2023/03/06 03:59:53;;;;;;;;;;;;;;;;;;5032076;28;20042;-49
2023/03/06 04:02:20;;;;;;;;;;;;;;;;;;5032369;28;19932;-56
2023/03/06 04:04:46;;;;;;;;;;;;;;;;;;5032170;28;20535;-54
2023/03/06 04:07:12;;;;;;;;;;;;;;;;;;5032147;28;20063;-55
2023/03/06 04:09:38;;;;;;;;;;;;;;;;;;5032004;28;19910;-56
2023/03/06 04:12:04;;;;;;;;;;;;;;;;;;5031960;28;19954;-55
2023/03/06 04:14:29;;;;;;;;;;;;;;;;;;5031827;28;19916;-55
2023/03/06 04:16:55;;;;;;;;;;;;;;;;;;5023264;28;19964;-56
2023/03/06 04:19:21;;;;;;;;;;;;;;;;;;5013294;28;19913;-56
2023/03/06 04:21:47;;;;;;;;;;;;;;;;;;5012626;28;19913;-56
2023/03/06 04:24:13;;;;;;;;;;;;;;;;;;5013273;28;20362;-56
2023/03/06 04:26:39;;;;;;;;;;;;;;;;;;5012551;28;19921;-54
2023/03/06 04:29:05;;;;;;;;;;;;;;;;;;5018047;28;20293;-56
2023/03/06 04:31:31;;;;;;;;;;;;;;;;;;5025328;28;19916;-56
2023/03/06 04:33:57;;;;;;;;;;;;;;;;;;5032405;28;19913;-57
2023/03/06 04:36:22;;;;;;;;;;;;;;;;;;5013914;28;20629;-57
2023/03/06 04:38:48;;;;;;;;;;;;;;;;;;5018340;28;19991;-56
2023/03/06 04:41:14;;;;;;;;;;;;;;;;;;5030678;28;20325;-54
2023/03/06 04:43:40;;;;;;;;;;;;;;;;;;5030983;28;19909;-56
2023/03/06 04:46:06;;;;;;;;;;;;;;;;;;5031420;28;20496;-56
2023/03/06 04:48:32;;;;;;;;;;;;;;;;;;5030811;28;19913;-55
2023/03/06 04:50:58;;;;;;;;;;;;;;;;;;5013201;28;19913;-55
2023/03/06 04:53:24;;;;;;;;;;;;;;;;;;5018343;28;20003;-57
2023/03/06 04:55:50;;;;;;;;;;;;;;;;;;5016929;28;19953;-56
2023/03/06 04:58:15;;;;;;;;;;;;;;;;;;5021894;28;20003;-56
2023/03/06 05:00:41;;;;;;;;;;;;;;;;;;5031002;28;19909;-56
2023/03/06 05:03:07;;;;;;;;;;;;;;;;;;5014469;28;19910;-56
2023/03/06 05:05:33;;;;;;;;;;;;;;;;;;5011849;28;19920;-56
2023/03/06 05:07:59;;;;;;;;;;;;;;;;;;5011716;28;20279;-55
2023/03/06 05:10:25;;;;;;;;;;;;;;;;;;5029826;28;20016;-55
2023/03/06 05:12:51;;;;;;;;;;;;;;;;;;5030729;28;20396;-55
2023/03/06 05:15:17;;;;;;;;;;;;;;;;;;5030306;28;20497;-55
2023/03/06 05:17:42;;;;;;;;;;;;;;;;;;5028533;28;19921;-55
2023/03/06 05:20:08;;;;;;;;;;;;;;;;;;5011696;28;19945;-55
2023/03/06 05:22:34;;;;;;;;;;;;;;;;;;5019279;28;19932;-62
2023/03/06 05:25:00;;;;;;;;;;;;;;;;;;5030690;28;19967;-56
2023/03/06 05:27:26;;;;;;;;;;;;;;;;;;5029935;28;19921;-52
2023/03/06 05:29:53;;;;;;;;;;;;;;;;;;5024140;28;19909;-56
2023/03/06 05:32:19;;;;;;;;;;;;;;;;;;5029996;28;19909;-55
2023/03/06 05:34:45;;;;;;;;;;;;;;;;;;5020554;28;19917;-56
2023/03/06 05:37:10;;;;;;;;;;;;;;;;;;5011312;28;19984;-56
2023/03/06 05:39:36;;;;;;;;;;;;;;;;;;5029825;28;19971;-55
2023/03/06 05:42:02;;;;;;;;;;;;;;;;;;5030074;28;20282;-56
2023/03/06 05:44:28;;;;;;;;;;;;;;;;;;5030576;28;19910;-55
2023/03/06 05:46:54;;;;;;;;;;;;;;;;;;5029776;28;19967;-56
2023/03/06 05:49:20;;;;;;;;;;;;;;;;;;5029903;28;20390;-56
2023/03/06 05:51:46;;;;;;;;;;;;;;;;;;5030019;28;19913;-56
2023/03/06 05:54:12;;;;;;;;;;;;;;;;;;5029905;28;19913;-56
2023/03/06 05:56:38;;;;;;;;;;;;;;;;;;5029586;28;19913;-53
2023/03/06 05:59:03;;;;;;;;;;;;;;;;;;5029741;28;19909;-56
2023/03/06 06:01:29;;;;;;;;;;;;;;;;;;5029557;28;20071;-55
2023/03/06 06:03:55;;;;;;;;;;;;;;;;;;5029569;28;19928;-57
2023/03/06 06:06:21;;;;;;;;;;;;;;;;;;5029831;28;20309;-57
2023/03/06 06:08:47;;;;;;;;;;;;;;;;;;5029236;28;19920;-57
2023/03/06 06:11:13;;;;;;;;;;;;;;;;;;5026865;28;19924;-57
2023/03/06 06:13:39;;;;;;;;;;;;;;;;;;5013017;28;19921;-57
2023/03/06 06:16:05;;;;;;;;;;;;;;;;;;5029077;28;19920;-57
2023/03/06 06:18:31;;;;;;;;;;;;;;;;;;5028807;28;20006;-56
2023/03/06 06:20:56;;;;;;;;;;;;;;;;;;5026858;28;19933;-55
2023/03/06 06:23:22;;;;;;;;;;;;;;;;;;5010302;28;20033;-56
2023/03/06 06:25:49;;;;;;;;;;;;;;;;;;5009962;28;20025;-57
2023/03/06 06:28:15;;;;;;;;;;;;;;;;;;5010126;28;19929;-56
2023/03/06 06:30:41;;;;;;;;;;;;;;;;;;5010687;28;20062;-57
2023/03/06 06:33:07;;;;;;;;;;;;;;;;;;5009993;28;20386;-56
2023/03/06 06:35:33;;;;;;;;;;;;;;;;;;5010509;28;19914;-57
2023/03/06 06:37:59;;;;;;;;;;;;;;;;;;5009856;28;19921;-56
2023/03/06 06:40:26;;;;;;;;;;;;;;;;;;5009969;28;19924;-56
2023/03/06 06:42:52;;;;;;;;;;;;;;;;;;5010086;28;19921;-56
2023/03/06 06:45:18;;;;;;;;;;;;;;;;;;5011560;28;20290;-56
2023/03/06 06:47:44;;;;;;;;;;;;;;;;;;5009663;28;19928;-57
2023/03/06 06:50:11;;;;;;;;;;;;;;;;;;5013006;28;20016;-55
2023/03/06 06:52:37;;;;;;;;;;;;;;;;;;5014656;28;19917;-57
2023/03/06 06:55:03;;;;;;;;;;;;;;;;;;5010638;28;20370;-57
2023/03/06 06:57:29;;;;;;;;;;;;;;;;;;5009907;28;19914;-56
2023/03/06 06:59:54;;;;;;;;;;;;;;;;;;5011232;28;20433;-57
2023/03/06 07:02:20;;;;;;;;;;;;;;;;;;5009786;28;20421;-56
2023/03/06 07:04:46;;;;;;;;;;;;;;;;;;5009337;28;19920;-57
2023/03/06 07:07:12;;;;;;;;;;;;;;;;;;5010006;28;19918;-57
2023/03/06 07:09:41;;;;;;;;;;;;;;;;;;5009603;28;19913;-56
2023/03/06 07:12:07;;;;;;;;;;;;;;;;;;5009604;28;19948;-56
2023/03/06 07:14:33;;;;;;;;;;;;;;;;;;5026915;28;19948;-56
2023/03/06 07:16:59;;;;;;;;;;;;;;;;;;5028358;28;19917;-57
2023/03/06 07:19:25;;;;;;;;;;;;;;;;;;5021347;28;19932;-57
2023/03/06 07:21:50;;;;;;;;;;;;;;;;;;5027945;28;19925;-56
2023/03/06 07:24:16;;;;;;;;;;;;;;;;;;5028856;28;19913;-57
2023/03/06 07:26:42;;;;;;;;;;;;;;;;;;5028214;28;19925;-56
2023/03/06 07:29:08;;;;;;;;;;;;;;;;;;5028431;28;20332;-56
2023/03/06 07:31:34;;;;;;;;;;;;;;;;;;5030095;28;19920;-57
2023/03/06 07:34:00;;;;;;;;;;;;;;;;;;5030978;28;20408;-56
2023/03/06 07:36:26;;;;;;;;;;;;;;;;;;5019537;28;20102;-56
2023/03/06 07:38:52;;;;;;;;;;;;;;;;;;5027997;28;20029;-52
2023/03/06 07:41:17;;;;;;;;;;;;;;;;;;5012753;28;19920;-57
2023/03/06 07:43:43;;;;;;;;;;;;;;;;;;5026331;28;19916;-56
2023/03/06 07:46:09;;;;;;;;;;;;;;;;;;5024784;28;19929;-57
2023/03/06 07:48:35;;;;;;;;;;;;;;;;;;5013168;28;20015;-58
2023/03/06 07:51:01;;;;;;;;;;;;;;;;;;5012422;28;19963;-65
2023/03/06 07:53:27;;;;;;;;;;;;;;;;;;5017202;28;20301;-65
2023/03/06 07:55:53;;;;;;;;;;;;;;;;;;5019656;28;19921;-65
2023/03/06 07:58:19;;;;;;;;;;;;;;;;;;5019495;28;20401;-64
2023/03/06 08:00:45;;;;;;;;;;;;;;;;;;5012885;28;19909;-65
2023/03/06 08:03:11;;;;;;;;;;;;;;;;;;5014469;28;20072;-65
2023/03/06 08:05:37;;;;;;;;;;;;;;;;;;5012562;28;19909;-66
2023/03/06 08:08:03;;;;;;;;;;;;;;;;;;5014488;28;20353;-65
2023/03/06 08:10:28;;;;;;;;;;;;;;;;;;5024993;28;20087;-64
2023/03/06 08:12:54;;;;;;;;;;;;;;;;;;5026391;28;19941;-65
2023/03/06 08:15:20;;;;;;;;;;;;;;;;;;5015919;28;19919;-65
2023/03/06 08:17:46;;;;;;;;;;;;;;;;;;5027472;28;19936;-65
2023/03/06 08:20:13;;;;;;;;;;;;;;;;;;5030123;28;19909;-65
2023/03/06 08:22:39;;;;;;;;;;;;;;;;;;5024918;28;19922;-66
2023/03/06 08:25:05;;;;;;;;;;;;;;;;;;5024961;28;19914;-66
2023/03/06 08:27:31;;;;;;;;;;;;;;;;;;5016914;28;19925;-64
2023/03/06 08:29:57;;;;;;;;;;;;;;;;;;5012304;28;19918;-65
2023/03/06 08:32:23;;;;;;;;;;;;;;;;;;5011310;28;19916;-64
2023/03/06 08:34:49;;;;;;;;;;;;;;;;;;5010752;28;20346;-65
2023/03/06 08:37:14;;;;;;;;;;;;;;;;;;5025810;28;19913;-66
2023/03/06 08:39:40;;;;;;;;;;;;;;;;;;5030380;28;20374;-66
2023/03/06 08:42:06;;;;;;;;;;;;;;;;;;5030072;28;20007;-65
2023/03/06 08:44:33;;;;;;;;;;;;;;;;;;5030318;28;20647;-67
2023/03/06 08:46:59;;;;;;;;;;;;;;;;;;5029836;28;19917;-67
2023/03/06 08:49:24;;;;;;;;;;;;;;;;;;5030348;28;19971;-67
2023/03/06 08:51:50;;;;;;;;;;;;;;;;;;5011088;28;20013;-68
2023/03/06 08:54:16;;;;;;;;;;;;;;;;;;5010901;28;19937;-66
2023/03/06 08:56:42;;;;;;;;;;;;;;;;;;5014126;28;20305;-65
2023/03/06 08:59:09;;;;;;;;;;;;;;;;;;5011136;28;19913;-66
2023/03/06 09:01:35;;;;;;;;;;;;;;;;;;5022694;28;19917;-67
2023/03/06 09:04:01;;;;;;;;;;;;;;;;;;5024529;28;19909;-68
2023/03/06 09:06:27;;;;;;;;;;;;;;;;;;5029839;28;19921;-67
2023/03/06 09:08:53;;;;;;;;;;;;;;;;;;5030093;28;19920;-66
2023/03/06 09:11:19;;;;;;;;;;;;;;;;;;5012307;28;19960;-68
2023/03/06 09:13:44;;;;;;;;;;;;;;;;;;5026804;28;20484;-67
2023/03/06 09:16:10;;;;;;;;;;;;;;;;;;5025248;28;19916;-65
2023/03/06 09:18:36;;;;;;;;;;;;;;;;;;5023731;28;19913;-66
2023/03/06 09:21:02;;;;;;;;;;;;;;;;;;5027222;28;20000;-66
2023/03/06 09:23:28;;;;;;;;;;;;;;;;;;5024971;28;19920;-66
2023/03/06 09:25:54;;;;;;;;;;;;;;;;;;5025873;28;19925;-66
2023/03/06 09:28:20;;;;;;;;;;;;;;;;;;5021491;28;20016;-67
2023/03/06 09:30:46;;;;;;;;;;;;;;;;;;5013969;28;19928;-65
2023/03/06 09:33:12;;;;;;;;;;;;;;;;;;5024317;28;19909;-66
2023/03/06 09:35:38;;;;;;;;;;;;;;;;;;5027184;28;20544;-68
2023/03/06 09:38:04;;;;;;;;;;;;;;;;;;5012983;28;19972;-68
2023/03/06 09:40:30;;;;;;;;;;;;;;;;;;5016904;28;20281;-67
2023/03/06 09:42:55;;;;;;;;;;;;;;;;;;5028479;28;19928;-66
2023/03/06 09:45:21;;;;;;;;;;;;;;;;;;5015028;28;20275;-67
2023/03/06 09:47:47;;;;;;;;;;;;;;;;;;5016686;28;19928;-67
2023/03/06 09:50:13;;;;;;;;;;;;;;;;;;5025290;28;19920;-67
2023/03/06 09:52:39;;;;;;;;;;;;;;;;;;5018807;28;19909;-70
2023/03/06 09:55:05;;;;;;;;;;;;;;;;;;5012150;28;20318;-67
2023/03/06 09:57:31;;;;;;;;;;;;;;;;;;5008864;28;20008;-68
2023/03/06 09:59:57;;;;;;;;;;;;;;;;;;5021428;28;20370;-68
2023/03/06 10:02:22;;;;;;;;;;;;;;;;;;5008209;28;19917;-68
2023/03/06 10:04:51;;;;;;;;;;;;;;;;;;5027908;28;20362;-66
2023/03/06 10:07:17;;;;;;;;;;;;;;;;;;5027646;28;20424;-69
2023/03/06 10:09:43;;;;;;;;;;;;;;;;;;5025991;28;19909;-68
2023/03/06 10:12:09;;;;;;;;;;;;;;;;;;5024704;28;19913;-70
2023/03/06 10:14:35;;;;;;;;;;;;;;;;;;5013985;28;19909;-68
2023/03/06 10:17:01;;;;;;;;;;;;;;;;;;5026345;28;20316;-67
2023/03/06 10:19:27;;;;;;;;;;;;;;;;;;5022180;28;19920;-66
2023/03/06 10:21:53;;;;;;;;;;;;;;;;;;5009144;28;19912;-67
2023/03/06 10:24:19;;;;;;;;;;;;;;;;;;5021481;28;19913;-67
2023/03/06 10:26:45;;;;;;;;;;;;;;;;;;5019667;28;20279;-67
2023/03/06 10:29:10;;;;;;;;;;;;;;;;;;5025317;28;20282;-68
2023/03/06 10:31:36;;;;;;;;;;;;;;;;;;5022285;28;19959;-68
2023/03/06 10:34:02;;;;;;;;;;;;;;;;;;5022519;28;20251;-68
2023/03/06 10:36:28;;;;;;;;;;;;;;;;;;5023867;28;20420;-68
2023/03/06 10:38:54;;;;;;;;;;;;;;;;;;5025438;28;20410;-69
2023/03/06 10:41:20;;;;;;;;;;;;;;;;;;5019902;28;19987;-68
2023/03/06 10:43:46;;;;;;;;;;;;;;;;;;5020858;28;19929;-68
2023/03/06 10:46:12;;;;;;;;;;;;;;;;;;5020636;28;19921;-68
2023/03/06 10:48:38;;;;;;;;;;;;;;;;;;5021238;28;20324;-69
2023/03/06 10:51:04;;;;;;;;;;;;;;;;;;5020479;28;19921;-68
2023/03/06 10:53:30;;;;;;;;;;;;;;;;;;5026217;28;19909;-68
2023/03/06 10:55:56;;;;;;;;;;;;;;;;;;5020258;28;20292;-68
2023/03/06 10:58:22;;;;;;;;;;;;;;;;;;5008031;28;19913;-67
2023/03/06 11:00:47;;;;;;;;;;;;;;;;;;5027569;28;20749;-70
2023/03/06 11:03:13;;;;;;;;;;;;;;;;;;5013569;28;19913;-69
2023/03/06 11:05:39;;;;;;;;;;;;;;;;;;5023467;28;19920;-68
2023/03/06 11:08:07;;;;;;;;;;;;;;;;;;5021260;28;19913;-68
2023/03/06 11:10:34;;;;;;;;;;;;;;;;;;5027448;28;20063;-68
2023/03/06 11:13:01;;;;;;;;;;;;;;;;;;5025656;28;20354;-69
2023/03/06 11:15:27;;;;;;;;;;;;;;;;;;5013720;28;19913;-69
2023/03/06 11:17:53;;;;;;;;;;;;;;;;;;5014606;28;19964;-73
2023/03/06 11:20:19;;;;;;;;;;;;;;;;;;5021797;28;19972;-67
2023/03/06 11:22:45;;;;;;;;;;;;;;;;;;5012599;28;19913;-70
2023/03/06 11:25:10;;;;;;;;;;;;;;;;;;5027381;28;19953;-66
2023/03/06 11:27:41;;;;;;;;;;;;;;;;;;5026361;28;20320;-68
2023/03/06 11:30:09;;;;;;;;;;;;;;;;;;5024466;28;20079;-68
2023/03/06 11:32:35;;;;;;;;;;;;;;;;;;5016909;28;20362;-70
2023/03/06 11:35:01;;;;;;;;;;;;;;;;;;5014566;28;19960;-68
2023/03/06 11:37:26;;;;;;;;;;;;;;;;;;5013862;28;20004;-70
2023/03/06 11:39:53;;;;;;;;;;;;;;;;;;5024960;28;20294;-66
2023/03/06 11:42:19;;;;;;;;;;;;;;;;;;5022543;28;19913;-69
2023/03/06 11:44:45;;;;;;;;;;;;;;;;;;5019883;28;19917;-69
2023/03/06 11:47:11;;;;;;;;;;;;;;;;;;5025831;28;20878;-70
2023/03/06 11:49:37;;;;;;;;;;;;;;;;;;5024323;28;19921;-67
2023/03/06 11:52:02;;;;;;;;;;;;;;;;;;5025089;28;20011;-68
2023/03/06 11:54:28;;;;;;;;;;;;;;;;;;5023064;28;19943;-68
2023/03/06 11:56:54;;;;;;;;;;;;;;;;;;5015359;28;19920;-68
2023/03/06 11:59:20;;;;;;;;;;;;;;;;;;5016980;28;19939;-70
2023/03/06 12:01:46;;;;;;;;;;;;;;;;;;5017256;28;20008;-70
2023/03/06 12:04:12;;;;;;;;;;;;;;;;;;5008989;28;19913;-70
2023/03/06 12:06:38;;;;;;;;;;;;;;;;;;5021378;28;19921;-69
2023/03/06 12:09:04;;;;;;;;;;;;;;;;;;5019991;28;19956;-69
2023/03/06 12:11:30;;;;;;;;;;;;;;;;;;5007206;28;19910;-69
2023/03/06 12:13:56;;;;;;;;;;;;;;;;;;5020565;28;20011;-69
2023/03/06 12:16:23;;;;;;;;;;;;;;;;;;5020787;28;19932;-69
2023/03/06 12:18:49;;;;;;;;;;;;;;;;;;5029407;28;19913;-67
2023/03/06 12:21:14;;;;;;;;;;;;;;;;;;5018417;28;19968;-68
2023/03/06 12:23:40;;;;;;;;;;;;;;;;;;5026825;28;20393;-69
2023/03/06 12:26:06;;;;;;;;;;;;;;;;;;5023237;28;20024;-70
2023/03/06 12:28:32;;;;;;;;;;;;;;;;;;5023172;28;20480;-70
2023/03/06 12:31:00;;;;;;;;;;;;;;;;;;5012821;28;20375;-70
2023/03/06 12:33:26;;;;;;;;;;;;;;;;;;5024711;28;19921;-70
2023/03/06 12:35:52;;;;;;;;;;;;;;;;;;5016817;28;19986;-70
2023/03/06 12:38:18;;;;;;;;;;;;;;;;;;5022342;28;19920;-70
2023/03/06 12:40:44;;;;;;;;;;;;;;;;;;5029703;28;19935;-71
2023/03/06 12:43:10;;;;;;;;;;;;;;;;;;5030609;28;19987;-69
2023/03/06 12:45:36;;;;;;;;;;;;;;;;;;5030884;28;19963;-70
2023/03/06 12:48:02;;;;;;;;;;;;;;;;;;5029963;28;20007;-70
2023/03/06 12:50:28;;;;;;;;;;;;;;;;;;5013707;28;19916;-69
2023/03/06 12:52:54;;;;;;;;;;;;;;;;;;5011461;28;19924;-69
2023/03/06 12:55:20;;;;;;;;;;;;;;;;;;5010852;28;20236;-70
2023/03/06 12:57:47;;;;;;;;;;;;;;;;;;5017118;28;19921;-69
2023/03/06 13:00:13;;;;;;;;;;;;;;;;;;5010682;28;19909;-69
2023/03/06 13:02:39;;;;;;;;;;;;;;;;;;5012205;28;19923;-71
2023/03/06 13:05:05;;;;;;;;;;;;;;;;;;5018698;28;19920;-69
2023/03/06 13:07:31;;;;;;;;;;;;;;;;;;5021747;28;19975;-68
2023/03/06 13:09:57;;;;;;;;;;;;;;;;;;5012038;28;19917;-69
2023/03/06 13:12:23;;;;;;;;;;;;;;;;;;5029899;28;19923;-68
2023/03/06 13:14:48;;;;;;;;;;;;;;;;;;5021155;28;19909;-69
2023/03/06 13:17:14;;;;;;;;;;;;;;;;;;5024158;28;19914;-69
2023/03/06 13:19:40;;;;;;;;;;;;;;;;;;5023405;28;19917;-69
2023/03/06 13:22:06;;;;;;;;;;;;;;;;;;5010080;28;19913;-69
2023/03/06 13:24:32;;;;;;;;;;;;;;;;;;5022919;28;19943;-68
2023/03/06 13:26:58;;;;;;;;;;;;;;;;;;5023637;28;19925;-68
2023/03/06 13:29:24;;;;;;;;;;;;;;;;;;5010827;28;19936;-69
2023/03/06 13:31:50;;;;;;;;;;;;;;;;;;5010550;28;20453;-65
2023/03/06 13:34:16;;;;;;;;;;;;;;;;;;5015526;28;19913;-69
2023/03/06 13:36:42;;;;;;;;;;;;;;;;;;5024944;28;20422;-68
2023/03/06 13:39:08;;;;;;;;;;;;;;;;;;5012712;28;19909;-69
2023/03/06 13:41:34;;;;;;;;;;;;;;;;;;5025132;28;20378;-67
2023/03/06 13:43:59;;;;;;;;;;;;;;;;;;5020508;28;20004;-69
2023/03/06 13:46:25;;;;;;;;;;;;;;;;;;5025264;28;20012;-68
2023/03/06 13:48:51;;;;;;;;;;;;;;;;;;5009685;28;19917;-66
2023/03/06 13:51:17;;;;;;;;;;;;;;;;;;5010040;28;20359;-67
2023/03/06 13:53:43;;;;;;;;;;;;;;;;;;5009833;28;19914;-68
2023/03/06 13:56:09;;;;;;;;;;;;;;;;;;5026096;28;19913;-66
2023/03/06 13:58:35;;;;;;;;;;;;;;;;;;5028591;28;20443;-68
2023/03/06 14:01:01;;;;;;;;;;;;;;;;;;5022612;28;19913;-67
2023/03/06 14:03:27;;;;;;;;;;;;;;;;;;5011162;28;19917;-67
2023/03/06 14:05:53;;;;;;;;;;;;;;;;;;5014605;28;20563;-67
2023/03/06 14:08:19;;;;;;;;;;;;;;;;;;5011079;28;19964;-69
2023/03/06 14:10:45;;;;;;;;;;;;;;;;;;5016523;28;19949;-67
2023/03/06 14:13:10;;;;;;;;;;;;;;;;;;5023106;28;20004;-67
2023/03/06 14:15:36;;;;;;;;;;;;;;;;;;5023950;28;19956;-67
2023/03/06 14:18:02;;;;;;;;;;;;;;;;;;5019224;28;19917;-68
2023/03/06 14:20:28;;;;;;;;;;;;;;;;;;5009860;28;19997;-68
2023/03/06 14:22:54;;;;;;;;;;;;;;;;;;5027645;28;19913;-68
2023/03/06 14:25:20;;;;;;;;;;;;;;;;;;5028389;28;19944;-68
2023/03/06 14:27:46;;;;;;;;;;;;;;;;;;5009542;28;19929;-68
2023/03/06 14:30:12;;;;;;;;;;;;;;;;;;5021488;28;19920;-70
2023/03/06 14:32:37;;;;;;;;;;;;;;;;;;5028620;28;20008;-70
2023/03/06 14:35:04;;;;;;;;;;;;;;;;;;5028158;28;19913;-70
2023/03/06 14:37:31;;;;;;;;;;;;;;;;;;5009807;28;19913;-70
2023/03/06 14:39:56;;;;;;;;;;;;;;;;;;5017835;28;20013;-69
2023/03/06 14:42:25;;;;;;;;;;;;;;;;;;5017305;28;20000;-66
2023/03/06 14:44:51;;;;;;;;;;;;;;;;;;5027183;28;19913;-69
2023/03/06 14:47:17;;;;;;;;;;;;;;;;;;5017273;28;19932;-68
2023/03/06 14:49:43;;;;;;;;;;;;;;;;;;5012531;28;19913;-68
2023/03/06 14:52:09;;;;;;;;;;;;;;;;;;5027854;28;19909;-67
2023/03/06 14:54:35;;;;;;;;;;;;;;;;;;5014561;28;19917;-68
2023/03/06 14:57:01;;;;;;;;;;;;;;;;;;5012113;28;19910;-66
2023/03/06 14:59:27;;;;;;;;;;;;;;;;;;5009730;28;19913;-67
2023/03/06 15:01:53;;;;;;;;;;;;;;;;;;5012200;28;19933;-65
2023/03/06 15:04:19;;;;;;;;;;;;;;;;;;5017511;28;19914;-68
2023/03/06 15:06:45;;;;;;;;;;;;;;;;;;5027345;28;20004;-67
2023/03/06 15:09:11;;;;;;;;;;;;;;;;;;5027757;28;19959;-68
2023/03/06 15:11:37;;;;;;;;;;;;;;;;;;5025729;28;20567;-69
2023/03/06 15:14:03;;;;;;;;;;;;;;;;;;5015874;28;19916;-68
2023/03/06 15:16:29;;;;;;;;;;;;;;;;;;5013015;28;20370;-68
2023/03/06 15:18:54;;;;;;;;;;;;;;;;;;5012561;28;19967;-68
2023/03/06 15:21:20;;;;;;;;;;;;;;;;;;5008365;28;20358;-69
2023/03/06 15:23:46;;;;;;;;;;;;;;;;;;5008962;28;20400;-69
2023/03/06 15:26:12;;;;;;;;;;;;;;;;;;5007945;28;19971;-67
2023/03/06 15:28:38;;;;;;;;;;;;;;;;;;5020648;28;19960;-69
2023/03/06 15:31:04;;;;;;;;;;;;;;;;;;5025108;28;20461;-68
2023/03/06 15:33:30;;;;;;;;;;;;;;;;;;5024624;28;19914;-66
2023/03/06 15:35:56;;;;;;;;;;;;;;;;;;5017885;28;19960;-68
2023/03/06 15:38:22;;;;;;;;;;;;;;;;;;5014254;28;19937;-68
2023/03/06 15:40:50;;;;;;;;;;;;;;;;;;5024066;28;19913;-68
2023/03/06 15:43:15;;;;;;;;;;;;;;;;;;5027266;28;19948;-67
2023/03/06 15:45:41;;;;;;;;;;;;;;;;;;5027500;28;19967;-67
2023/03/06 15:48:07;;;;;;;;;;;;;;;;;;5025852;28;19925;-67
2023/03/06 15:50:33;;;;;;;;;;;;;;;;;;5021046;28;19913;-67
2023/03/06 15:52:59;;;;;;;;;;;;;;;;;;5010285;28;20008;-68
2023/03/06 15:55:25;;;;;;;;;;;;;;;;;;5014755;28;19910;-68
2023/03/06 15:57:51;;;;;;;;;;;;;;;;;;5015865;28;20305;-67
2023/03/06 16:00:17;;;;;;;;;;;;;;;;;;5019172;28;20024;-67
2023/03/06 16:02:42;;;;;;;;;;;;;;;;;;5018630;28;20000;-66
2023/03/06 16:05:08;;;;;;;;;;;;;;;;;;5015071;28;20452;-68
2023/03/06 16:07:34;;;;;;;;;;;;;;;;;;5022085;28;19930;-66
2023/03/06 16:10:00;;;;;;;;;;;;;;;;;;5012065;28;20393;-68
2023/03/06 16:12:26;;;;;;;;;;;;;;;;;;5026744;28;19951;-68
2023/03/06 16:14:52;;;;;;;;;;;;;;;;;;5015615;28;20367;-67
2023/03/06 16:17:18;;;;;;;;;;;;;;;;;;5024251;28;19917;-67
2023/03/06 16:19:44;;;;;;;;;;;;;;;;;;5013441;28;19914;-67
2023/03/06 16:22:10;;;;;;;;;;;;;;;;;;5022465;28;19913;-64
2023/03/06 16:24:36;;;;;;;;;;;;;;;;;;5015262;28;19909;-67
2023/03/06 16:27:01;;;;;;;;;;;;;;;;;;5015554;28;20307;-67
2023/03/06 16:29:27;;;;;;;;;;;;;;;;;;5017360;28;19918;-67
2023/03/06 16:31:54;;;;;;;;;;;;;;;;;;5011931;28;19960;-68
2023/03/06 16:34:19;;;;;;;;;;;;;;;;;;5020794;28;19913;-71
2023/03/06 16:36:45;;;;;;;;;;;;;;;;;;5018899;28;19924;-71